createdAt,value
2019-02-15T00:01:37.644Z,34.30
2019-02-15T00:04:03.903Z,34.20
2019-02-15T00:06:30.326Z,34.20
2019-02-15T00:08:56.763Z,34.20
2019-02-15T00:11:23.206Z,34.20
2019-02-15T00:13:49.846Z,34.20
2019-02-15T00:16:16.246Z,34.20
2019-02-15T00:18:44.112Z,34.40
2019-02-15T00:21:10.516Z,34.30
2019-02-15T00:23:36.817Z,34.00
2019-02-15T00:26:03.208Z,34.10
2019-02-15T00:28:30.290Z,34.10
2019-02-15T00:30:56.698Z,34.00
2019-02-15T00:33:22.920Z,34.00
2019-02-15T00:35:49.398Z,34.10
2019-02-15T00:38:15.762Z,34.00
2019-02-15T00:40:42.031Z,34.00
2019-02-15T00:43:08.485Z,34.00
2019-02-15T00:45:34.864Z,34.00
2019-02-15T00:48:01.098Z,33.90
2019-02-15T00:50:27.320Z,33.90
2019-02-15T00:52:53.536Z,33.90
2019-02-15T00:55:19.827Z,33.70
2019-02-15T00:57:46.253Z,33.70
2019-02-15T01:00:12.424Z,33.70
2019-02-15T01:02:38.665Z,33.70
2019-02-15T01:05:04.891Z,33.60
2019-02-15T01:07:31.152Z,33.60
2019-02-15T01:09:57.603Z,33.50
2019-02-15T01:12:24.018Z,33.40
2019-02-15T01:14:50.447Z,33.50
2019-02-15T01:17:16.898Z,33.30
2019-02-15T01:19:43.290Z,33.40
2019-02-15T01:22:09.518Z,33.30
2019-02-15T01:24:37.408Z,33.40
2019-02-15T01:27:03.614Z,33.30
2019-02-15T01:29:29.854Z,33.90
2019-02-15T01:31:56.091Z,33.20
2019-02-15T01:34:22.488Z,33.30
2019-02-15T01:36:48.993Z,33.20
2019-02-15T01:39:15.374Z,33.20
2019-02-15T01:41:41.603Z,33.20
2019-02-15T01:44:07.866Z,33.20
2019-02-15T01:46:34.299Z,33.20
2019-02-15T01:49:00.732Z,33.20
2019-02-15T01:51:26.929Z,33.10
2019-02-15T01:53:53.343Z,33.10
2019-02-15T01:56:19.622Z,33.00
2019-02-15T01:58:46.015Z,33.00
2019-02-15T02:01:12.267Z,32.90
2019-02-15T02:03:38.737Z,33.00
2019-02-15T02:06:05.105Z,32.90
2019-02-15T02:08:32.951Z,33.00
2019-02-15T02:10:59.211Z,32.90
2019-02-15T02:13:25.635Z,32.80
2019-02-15T02:15:51.859Z,32.80
2019-02-15T02:18:18.338Z,32.80
2019-02-15T02:20:44.740Z,32.90
2019-02-15T02:23:11.208Z,32.90
2019-02-15T02:25:37.584Z,32.80
2019-02-15T02:28:03.812Z,32.80
2019-02-15T02:30:30.090Z,32.80
2019-02-15T02:32:56.489Z,32.80
2019-02-15T02:35:22.701Z,32.80
2019-02-15T02:37:48.926Z,32.80
2019-02-15T02:40:15.202Z,32.70
2019-02-15T02:42:41.604Z,32.70
2019-02-15T02:45:07.826Z,32.80
2019-02-15T02:47:34.070Z,32.80
2019-02-15T02:50:00.498Z,32.70
2019-02-15T02:52:26.747Z,32.60
2019-02-15T02:54:53.153Z,32.60
2019-02-15T02:57:19.363Z,32.60
2019-02-15T02:59:45.632Z,32.60
2019-02-15T03:02:11.847Z,32.60
2019-02-15T03:04:38.127Z,32.70
2019-02-15T03:07:04.489Z,32.70
2019-02-15T03:09:30.944Z,32.60
2019-02-15T03:11:57.201Z,32.60
2019-02-15T03:14:23.589Z,32.60
2019-02-15T03:16:49.832Z,32.60
2019-02-15T03:19:16.049Z,32.60
2019-02-15T03:21:42.290Z,32.50
2019-02-15T03:24:08.556Z,32.60
2019-02-15T03:26:34.935Z,32.50
2019-02-15T03:29:01.219Z,32.60
2019-02-15T03:31:27.661Z,32.70
2019-02-15T03:33:54.044Z,32.60
2019-02-15T03:36:20.454Z,32.60
2019-02-15T03:38:46.696Z,32.70
2019-02-15T03:41:13.168Z,32.70
2019-02-15T03:43:39.579Z,33.30
2019-02-15T03:46:06.647Z,32.60
2019-02-15T03:48:33.044Z,32.60
2019-02-15T03:50:59.468Z,32.50
2019-02-15T03:53:27.396Z,32.60
2019-02-15T03:55:53.784Z,32.50
2019-02-15T03:58:20.005Z,32.50
2019-02-15T04:00:46.437Z,32.50
2019-02-15T04:03:14.302Z,32.60
2019-02-15T04:05:42.151Z,32.60
2019-02-15T04:08:08.447Z,32.50
2019-02-15T04:10:34.819Z,32.50
2019-02-15T04:13:01.082Z,32.50
2019-02-15T04:15:27.569Z,32.40
2019-02-15T04:17:53.933Z,32.40
2019-02-15T04:20:20.162Z,32.50
2019-02-15T04:22:46.607Z,32.40
2019-02-15T04:25:13.012Z,32.40
2019-02-15T04:27:39.286Z,32.40
2019-02-15T04:30:05.667Z,32.40
2019-02-15T04:32:33.549Z,32.50
2019-02-15T04:34:59.777Z,32.40
2019-02-15T04:37:25.989Z,32.50
2019-02-15T04:39:52.234Z,32.50
2019-02-15T04:42:18.457Z,32.40
2019-02-15T04:44:44.682Z,32.40
2019-02-15T04:47:10.922Z,32.40
2019-02-15T04:49:38.841Z,32.50
2019-02-15T04:52:05.255Z,32.40
2019-02-15T04:54:31.640Z,32.40
2019-02-15T04:56:57.890Z,32.40
2019-02-15T04:59:24.101Z,32.40
2019-02-15T05:01:50.317Z,32.40
2019-02-15T05:04:16.624Z,32.40
2019-02-15T05:06:42.967Z,32.30
2019-02-15T05:09:09.241Z,32.30
2019-02-15T05:11:35.432Z,32.30
2019-02-15T05:14:01.675Z,32.40
2019-02-15T05:16:27.907Z,32.30
2019-02-15T05:18:54.152Z,32.30
2019-02-15T05:21:20.377Z,32.30
2019-02-15T05:23:46.651Z,32.30
2019-02-15T05:26:13.032Z,32.30
2019-02-15T05:28:40.933Z,32.50
2019-02-15T05:31:07.323Z,32.40
2019-02-15T05:33:35.557Z,32.30
2019-02-15T05:36:00.195Z,32.30
2019-02-15T05:38:26.411Z,32.30
2019-02-15T05:40:52.688Z,32.30
2019-02-15T05:43:19.061Z,32.40
2019-02-15T05:45:45.335Z,32.30
2019-02-15T05:48:11.754Z,32.30
2019-02-15T05:50:38.057Z,32.40
2019-02-15T05:53:04.431Z,32.40
2019-02-15T05:55:30.855Z,32.40
2019-02-15T05:57:57.514Z,32.40
2019-02-15T06:00:23.932Z,32.40
2019-02-15T06:02:50.323Z,32.40
2019-02-15T06:05:16.559Z,32.30
2019-02-15T06:07:42.787Z,32.30
2019-02-15T06:10:09.027Z,32.30
2019-02-15T06:12:35.286Z,32.30
2019-02-15T06:15:01.693Z,32.30
2019-02-15T06:17:27.926Z,32.40
2019-02-15T06:19:54.165Z,32.30
2019-02-15T06:22:20.551Z,32.30
2019-02-15T06:24:46.790Z,32.20
2019-02-15T06:27:13.046Z,32.30
2019-02-15T06:29:39.479Z,32.30
2019-02-15T06:32:05.678Z,32.50
2019-02-15T06:34:31.982Z,32.30
2019-02-15T06:36:58.404Z,32.30
2019-02-15T06:39:24.779Z,32.40
2019-02-15T06:41:51.012Z,32.30
2019-02-15T06:44:18.058Z,32.50
2019-02-15T06:46:45.903Z,32.50
2019-02-15T06:49:12.136Z,32.40
2019-02-15T06:51:38.374Z,32.30
2019-02-15T06:54:04.611Z,32.30
2019-02-15T06:56:30.823Z,32.20
2019-02-15T06:58:57.096Z,32.20
2019-02-15T07:01:23.490Z,32.30
2019-02-15T07:03:49.769Z,32.30
2019-02-15T07:06:16.159Z,32.30
2019-02-15T07:08:42.389Z,32.20
2019-02-15T07:11:10.258Z,32.40
2019-02-15T07:13:36.502Z,32.20
2019-02-15T07:16:02.745Z,32.20
2019-02-15T07:18:29.395Z,32.10
2019-02-15T07:20:55.788Z,32.10
2019-02-15T07:23:22.012Z,32.10
2019-02-15T07:25:48.228Z,32.10
2019-02-15T07:28:14.454Z,32.10
2019-02-15T07:30:40.699Z,32.10
2019-02-15T07:33:08.575Z,32.20
2019-02-15T07:35:34.786Z,32.10
2019-02-15T07:38:01.022Z,32.10
2019-02-15T07:40:27.282Z,32.10
2019-02-15T07:42:53.681Z,32.10
2019-02-15T07:45:22.591Z,32.10
2019-02-15T07:47:47.166Z,32.10
2019-02-15T07:50:13.383Z,32.00
2019-02-15T07:52:39.679Z,32.00
2019-02-15T07:55:06.040Z,32.00
2019-02-15T07:57:33.955Z,32.00
2019-02-15T08:00:00.537Z,32.00
2019-02-15T08:02:25.389Z,32.00
2019-02-15T08:04:52.538Z,32.00
2019-02-15T08:07:18.826Z,32.00
2019-02-15T08:09:45.115Z,32.00
2019-02-15T08:12:11.504Z,32.00
2019-02-15T08:14:37.720Z,32.00
2019-02-15T08:17:04.146Z,32.00
2019-02-15T08:19:30.391Z,32.00
2019-02-15T08:21:58.247Z,32.10
2019-02-15T08:24:24.516Z,32.00
2019-02-15T08:26:50.908Z,32.00
2019-02-15T08:29:17.128Z,32.00
2019-02-15T08:31:43.587Z,32.00
2019-02-15T08:34:10.026Z,32.00
2019-02-15T08:36:36.222Z,32.10
2019-02-15T08:39:02.459Z,32.10
2019-02-15T08:41:28.694Z,32.10
2019-02-15T08:43:54.917Z,32.10
2019-02-15T08:46:21.131Z,32.10
2019-02-15T08:48:47.347Z,32.10
2019-02-15T08:51:14.143Z,32.10
2019-02-15T08:53:40.445Z,32.10
2019-02-15T08:56:06.664Z,32.70
2019-02-15T08:58:32.941Z,32.10
2019-02-15T09:00:59.357Z,32.10
2019-02-15T09:03:25.556Z,32.10
2019-02-15T09:05:52.034Z,32.10
2019-02-15T09:08:18.640Z,32.10
2019-02-15T09:10:44.893Z,32.10
2019-02-15T09:13:11.296Z,32.10
2019-02-15T09:15:39.148Z,32.40
2019-02-15T09:18:05.380Z,32.30
2019-02-15T09:20:33.252Z,32.50
2019-02-15T09:22:59.494Z,32.30
2019-02-15T09:25:25.754Z,32.30
2019-02-15T09:27:52.386Z,32.40
2019-02-15T09:30:19.084Z,32.50
2019-02-15T09:32:45.421Z,32.50
2019-02-15T09:35:11.667Z,32.50
2019-02-15T09:37:38.067Z,32.50
2019-02-15T09:40:04.348Z,32.60
2019-02-15T09:42:30.750Z,32.60
2019-02-15T09:44:57.011Z,32.70
2019-02-15T09:47:23.409Z,32.70
2019-02-15T09:49:49.620Z,32.70
2019-02-15T09:52:17.340Z,32.80
2019-02-15T09:54:43.757Z,32.80
2019-02-15T09:57:10.201Z,32.80
2019-02-15T09:59:36.578Z,33.00
2019-02-15T10:02:02.825Z,33.00
2019-02-15T10:04:29.878Z,33.20
2019-02-15T10:06:56.137Z,33.10
2019-02-15T10:09:22.548Z,33.10
2019-02-15T10:11:48.768Z,33.20
2019-02-15T10:14:14.986Z,33.20
2019-02-15T10:16:41.237Z,33.20
2019-02-15T10:19:07.647Z,33.30
2019-02-15T10:21:33.896Z,33.30
2019-02-15T10:24:00.102Z,33.30
2019-02-15T10:26:27.983Z,33.60
2019-02-15T10:28:54.187Z,33.40
2019-02-15T10:31:20.420Z,33.40
2019-02-15T10:33:47.043Z,33.50
2019-02-15T10:36:13.331Z,33.50
2019-02-15T10:38:40.174Z,33.50
2019-02-15T10:41:08.206Z,33.70
2019-02-15T10:43:34.432Z,33.50
2019-02-15T10:46:02.314Z,33.80
2019-02-15T10:48:28.573Z,33.60
2019-02-15T10:50:54.983Z,33.60
2019-02-15T10:53:21.430Z,33.70
2019-02-15T10:55:47.847Z,33.70
2019-02-15T10:58:14.292Z,33.70
2019-02-15T11:00:40.751Z,33.70
2019-02-15T11:03:07.168Z,33.70
2019-02-15T11:05:34.555Z,33.70
2019-02-15T11:08:00.854Z,33.70
2019-02-15T11:10:27.235Z,33.80
2019-02-15T11:12:53.525Z,33.80
2019-02-15T11:15:19.926Z,33.80
2019-02-15T11:17:46.587Z,33.80
2019-02-15T11:20:12.975Z,33.90
2019-02-15T11:22:39.196Z,33.90
2019-02-15T11:25:05.432Z,33.90
2019-02-15T11:27:33.304Z,34.20
2019-02-15T11:29:59.531Z,34.00
2019-02-15T11:32:27.423Z,34.20
2019-02-15T11:34:53.834Z,34.00
2019-02-15T11:37:20.283Z,34.10
2019-02-15T11:39:46.529Z,34.10
2019-02-15T11:42:12.934Z,34.20
2019-02-15T11:44:39.180Z,34.20
2019-02-15T11:47:05.586Z,34.20
2019-02-15T11:49:31.823Z,34.20
2019-02-15T11:51:58.284Z,34.30
2019-02-15T11:54:24.674Z,34.40
2019-02-15T11:56:50.920Z,34.40
2019-02-15T11:59:18.813Z,34.60
2019-02-15T12:01:45.219Z,34.50
2019-02-15T12:04:11.480Z,34.50
2019-02-15T12:06:37.906Z,34.60
2019-02-15T12:09:04.095Z,34.70
2019-02-15T12:11:30.366Z,34.70
2019-02-15T12:13:57.808Z,34.90
2019-02-15T12:16:24.262Z,34.80
2019-02-15T12:18:50.649Z,35.00
2019-02-15T12:21:18.522Z,35.00
2019-02-15T12:23:45.818Z,35.20
2019-02-15T12:26:12.205Z,35.00
2019-02-15T12:28:38.419Z,35.20
2019-02-15T12:31:04.651Z,35.20
2019-02-15T12:33:30.952Z,35.20
2019-02-15T12:35:57.318Z,35.30
2019-02-15T12:38:23.788Z,35.30
2019-02-15T12:40:50.197Z,35.30
2019-02-15T12:43:16.617Z,35.50
2019-02-15T12:45:42.859Z,35.50
2019-02-15T12:48:09.521Z,35.50
2019-02-15T12:50:35.927Z,35.50
2019-02-15T12:53:02.342Z,35.60
2019-02-15T12:55:28.589Z,35.70
2019-02-15T12:57:55.015Z,35.70
2019-02-15T13:00:21.247Z,35.80
2019-02-15T13:02:49.097Z,36.00
2019-02-15T13:05:15.386Z,35.80
2019-02-15T13:07:41.772Z,35.90
2019-02-15T13:10:08.012Z,35.90
2019-02-15T13:12:34.464Z,35.90
2019-02-15T13:15:01.104Z,36.00
2019-02-15T13:17:27.512Z,36.00
2019-02-15T13:19:53.767Z,36.10
2019-02-15T13:22:20.324Z,36.10
2019-02-15T13:24:46.596Z,36.20
2019-02-15T13:27:12.818Z,36.20
2019-02-15T13:29:39.031Z,36.20
2019-02-15T13:32:05.898Z,36.30
2019-02-15T13:34:32.355Z,36.30
2019-02-15T13:37:00.024Z,36.40
2019-02-15T13:39:26.435Z,36.40
2019-02-15T13:41:52.666Z,36.40
2019-02-15T13:44:19.325Z,36.40
2019-02-15T13:46:45.714Z,36.50
2019-02-15T13:49:13.023Z,36.60
2019-02-15T13:51:38.390Z,36.60
2019-02-15T13:54:05.415Z,36.60
2019-02-15T13:56:31.634Z,36.60
2019-02-15T13:58:57.923Z,36.70
2019-02-15T14:01:24.323Z,36.70
2019-02-15T14:03:50.539Z,36.70
2019-02-15T14:06:16.749Z,36.80
2019-02-15T14:08:42.995Z,36.80
2019-02-15T14:11:09.248Z,36.90
2019-02-15T14:13:35.711Z,36.90
2019-02-15T14:16:02.109Z,37.10
2019-02-15T14:18:28.545Z,37.10
2019-02-15T14:20:54.957Z,37.10
2019-02-15T14:23:21.252Z,37.20
2019-02-15T14:25:47.610Z,37.30
2019-02-15T14:28:13.864Z,37.30
2019-02-15T14:30:40.336Z,37.30
2019-02-15T14:33:06.711Z,37.30
2019-02-15T14:35:32.985Z,37.80
2019-02-15T14:37:59.381Z,37.30
2019-02-15T14:40:27.264Z,37.40
2019-02-15T14:42:53.454Z,37.30
2019-02-15T14:45:19.721Z,37.40
2019-02-15T14:47:54.556Z,37.40
2019-02-15T14:50:12.615Z,37.40
2019-02-15T14:52:39.031Z,37.40
2019-02-15T14:55:05.222Z,37.40
2019-02-15T14:57:31.719Z,37.40
2019-02-15T14:59:58.153Z,37.40
2019-02-15T15:02:24.566Z,37.50
2019-02-15T15:04:50.953Z,37.50
2019-02-15T15:07:17.193Z,37.50
2019-02-15T15:09:43.392Z,37.50
2019-02-15T15:12:09.648Z,37.50
2019-02-15T15:14:35.863Z,37.50
2019-02-15T15:17:02.292Z,37.60
2019-02-15T15:19:28.532Z,37.60
2019-02-15T15:21:54.796Z,37.60
2019-02-15T15:24:21.190Z,37.60
2019-02-15T15:26:47.441Z,37.60
2019-02-15T15:29:13.867Z,37.70
2019-02-15T15:31:40.124Z,37.70
2019-02-15T15:34:06.536Z,37.70
2019-02-15T15:36:32.946Z,37.70
2019-02-15T15:38:59.204Z,37.70
2019-02-15T15:41:25.604Z,37.80
2019-02-15T15:43:52.662Z,37.90
2019-02-15T15:46:19.150Z,37.80
2019-02-15T15:48:45.537Z,37.80
2019-02-15T15:51:11.757Z,37.80
2019-02-15T15:53:39.660Z,37.90
2019-02-15T15:56:06.060Z,37.80
2019-02-15T15:58:32.261Z,37.80
2019-02-15T16:00:58.518Z,37.80
2019-02-15T16:03:24.930Z,37.80
2019-02-15T16:05:51.187Z,37.80
2019-02-15T16:08:17.403Z,37.80
2019-02-15T16:10:43.831Z,37.80
2019-02-15T16:13:11.716Z,37.90
2019-02-15T16:15:38.751Z,37.80
2019-02-15T16:18:05.015Z,37.80
2019-02-15T16:20:31.418Z,37.80
2019-02-15T16:22:57.636Z,37.80
2019-02-15T16:25:24.732Z,38.40
2019-02-15T16:27:51.145Z,37.80
2019-02-15T16:30:17.630Z,37.80
2019-02-15T16:32:43.984Z,37.80
2019-02-15T16:35:10.201Z,37.80
2019-02-15T16:37:36.431Z,37.70
2019-02-15T16:40:03.251Z,37.80
2019-02-15T16:42:29.510Z,37.70
2019-02-15T16:44:55.756Z,37.80
2019-02-15T16:47:21.986Z,37.70
2019-02-15T16:49:48.200Z,37.60
2019-02-15T16:52:14.463Z,37.70
2019-02-15T16:54:40.863Z,37.70
2019-02-15T16:57:07.102Z,37.70
2019-02-15T16:59:33.524Z,37.70
2019-02-15T17:02:01.424Z,37.90
2019-02-15T17:04:27.840Z,37.80
2019-02-15T17:06:54.290Z,37.70
2019-02-15T17:09:20.675Z,37.70
2019-02-15T17:11:46.913Z,37.70
2019-02-15T17:14:13.170Z,37.70
2019-02-15T17:16:39.583Z,37.60
2019-02-15T17:19:06.022Z,37.70
2019-02-15T17:21:32.440Z,37.70
2019-02-15T17:23:59.487Z,37.70
2019-02-15T17:26:25.725Z,37.70
2019-02-15T17:28:52.797Z,37.70
2019-02-15T17:31:19.222Z,37.70
2019-02-15T17:33:45.641Z,37.60
2019-02-15T17:36:13.487Z,37.70
2019-02-15T17:38:39.770Z,37.70
2019-02-15T17:41:06.170Z,37.60
2019-02-15T17:43:32.399Z,37.60
2019-02-15T17:45:58.810Z,37.60
2019-02-15T17:48:25.093Z,37.60
2019-02-15T17:50:51.463Z,37.60
2019-02-15T17:53:17.725Z,37.50
2019-02-15T17:55:43.954Z,37.50
2019-02-15T17:58:10.467Z,37.50
2019-02-15T18:00:36.839Z,37.50
2019-02-15T18:03:03.281Z,37.50
2019-02-15T18:05:29.659Z,37.50
2019-02-15T18:07:55.977Z,37.50
2019-02-15T18:10:22.214Z,37.50
2019-02-15T18:12:48.660Z,37.50
2019-02-15T18:15:15.009Z,37.50
2019-02-15T18:17:41.215Z,37.40
2019-02-15T18:20:07.450Z,37.40
2019-02-15T18:22:33.702Z,37.40
2019-02-15T18:25:00.304Z,37.40
2019-02-15T18:27:26.560Z,37.40
2019-02-15T18:29:52.982Z,37.30
2019-02-15T18:32:20.838Z,37.50
2019-02-15T18:34:47.083Z,37.30
2019-02-15T18:37:13.298Z,37.30
2019-02-15T18:39:41.159Z,37.50
2019-02-15T18:42:07.404Z,37.30
2019-02-15T18:44:33.664Z,37.30
2019-02-15T18:47:00.056Z,37.30
2019-02-15T18:49:26.482Z,37.30
2019-02-15T18:51:52.731Z,37.30
2019-02-15T18:54:18.939Z,37.30
2019-02-15T18:56:45.170Z,37.30
2019-02-15T18:59:11.402Z,37.20
2019-02-15T19:01:37.643Z,37.30
2019-02-15T19:04:03.899Z,37.20
2019-02-15T19:06:30.279Z,37.30
2019-02-15T19:08:58.143Z,37.30
2019-02-15T19:11:24.397Z,37.20
2019-02-15T19:13:50.655Z,37.20
2019-02-15T19:16:17.035Z,37.20
2019-02-15T19:18:43.261Z,37.20
2019-02-15T19:21:09.511Z,37.20
2019-02-15T19:23:35.929Z,37.20
2019-02-15T19:26:02.157Z,37.20
2019-02-15T19:28:29.773Z,37.20
2019-02-15T19:30:56.061Z,37.20
2019-02-15T19:33:22.299Z,37.10
2019-02-15T19:35:48.721Z,37.10
2019-02-15T19:38:14.940Z,37.10
2019-02-15T19:40:41.163Z,37.10
2019-02-15T19:43:07.598Z,37.00
2019-02-15T19:45:33.842Z,37.00
2019-02-15T19:48:00.136Z,37.00
2019-02-15T19:50:26.503Z,37.00
2019-02-15T19:52:52.973Z,37.00
2019-02-15T19:55:19.181Z,37.00
2019-02-15T19:57:45.394Z,37.00
2019-02-15T20:00:12.437Z,37.10
2019-02-15T20:02:40.299Z,37.10
2019-02-15T20:05:06.530Z,37.00
2019-02-15T20:07:32.755Z,37.00
2019-02-15T20:10:00.667Z,37.00
2019-02-15T20:12:27.093Z,36.90
2019-02-15T20:14:53.510Z,36.90
2019-02-15T20:17:19.958Z,36.90
2019-02-15T20:19:48.600Z,36.90
2019-02-15T20:22:12.617Z,36.90
2019-02-15T20:24:39.067Z,36.80
2019-02-15T20:27:05.436Z,36.80
2019-02-15T20:29:31.673Z,36.80
2019-02-15T20:31:57.903Z,36.80
2019-02-15T20:34:24.144Z,36.80
2019-02-15T20:36:51.187Z,36.90
2019-02-15T20:39:17.631Z,36.80
2019-02-15T20:41:44.038Z,36.80
2019-02-15T20:44:11.922Z,36.90
2019-02-15T20:46:38.178Z,36.80
2019-02-15T20:49:05.123Z,36.80
2019-02-15T20:51:31.002Z,36.80
2019-02-15T20:53:57.234Z,36.70
2019-02-15T20:56:23.491Z,36.70
2019-02-15T20:58:49.935Z,36.70
2019-02-15T21:01:16.349Z,36.80
2019-02-15T21:03:42.759Z,36.80
2019-02-15T21:06:08.983Z,36.70
2019-02-15T21:08:35.215Z,36.80
2019-02-15T21:11:01.455Z,36.70
2019-02-15T21:13:27.673Z,36.60
2019-02-15T21:15:53.941Z,36.60
2019-02-15T21:18:20.359Z,36.70
2019-02-15T21:20:46.574Z,36.70
2019-02-15T21:23:13.645Z,36.80
2019-02-15T21:25:40.040Z,36.70
2019-02-15T21:28:06.313Z,36.60
2019-02-15T21:30:32.699Z,36.60
2019-02-15T21:33:00.571Z,36.70
2019-02-15T21:35:26.849Z,36.60
2019-02-15T21:37:53.233Z,36.60
2019-02-15T21:40:19.706Z,36.60
2019-02-15T21:42:46.092Z,36.60
2019-02-15T21:45:12.421Z,36.60
2019-02-15T21:47:38.795Z,36.60
2019-02-15T21:50:05.180Z,36.50
2019-02-15T21:52:31.623Z,36.60
2019-02-15T21:54:57.870Z,36.50
2019-02-15T21:57:24.283Z,36.50
2019-02-15T21:59:50.522Z,36.50
2019-02-15T22:02:16.728Z,36.50
2019-02-15T22:04:43.006Z,36.40
2019-02-15T22:07:09.414Z,36.50
2019-02-15T22:09:35.632Z,36.50
2019-02-15T22:12:03.495Z,36.60
2019-02-15T22:14:29.727Z,36.50
2019-02-15T22:16:55.997Z,36.50
2019-02-15T22:19:22.636Z,36.40
2019-02-15T22:21:49.051Z,36.40
2019-02-15T22:24:15.466Z,36.50
2019-02-15T22:26:42.139Z,36.40
2019-02-15T22:29:08.543Z,36.30
2019-02-15T22:31:34.971Z,36.40
2019-02-15T22:34:02.010Z,36.40
2019-02-15T22:36:28.252Z,36.40
2019-02-15T22:38:54.463Z,36.30
2019-02-15T22:41:22.326Z,36.50
2019-02-15T22:43:48.809Z,36.40
2019-02-15T22:46:15.226Z,36.30
2019-02-15T22:48:41.656Z,36.30
2019-02-15T22:51:08.068Z,36.30
2019-02-15T22:53:34.323Z,36.20
2019-02-15T22:56:00.754Z,36.10
2019-02-15T22:58:27.180Z,36.20
2019-02-15T23:00:53.449Z,36.20
2019-02-15T23:03:20.094Z,36.10
2019-02-15T23:05:46.505Z,36.10
2019-02-15T23:08:12.937Z,36.20
2019-02-15T23:10:39.326Z,36.10
2019-02-15T23:13:05.555Z,36.20
2019-02-15T23:15:32.242Z,36.10
2019-02-15T23:17:58.635Z,36.10
2019-02-15T23:20:24.862Z,36.10
2019-02-15T23:22:51.533Z,36.10
2019-02-15T23:25:17.927Z,36.10
2019-02-15T23:27:44.169Z,36.10
2019-02-15T23:30:11.242Z,36.10
2019-02-15T23:32:37.619Z,36.10
2019-02-15T23:35:03.877Z,36.00
2019-02-15T23:37:30.310Z,36.00
2019-02-15T23:39:56.537Z,35.90
2019-02-15T23:42:22.778Z,36.00
2019-02-15T23:44:49.192Z,36.00
2019-02-15T23:47:15.448Z,36.00
2019-02-15T23:49:42.092Z,35.90
2019-02-15T23:52:08.487Z,35.80
2019-02-15T23:54:34.719Z,35.90
2019-02-15T23:57:00.955Z,35.90
2019-02-15T23:59:28.032Z,36.00
